createdAt,value
2023-02-23T00:02:20.047Z,2.90
2023-02-23T00:04:48.282Z,3.05
2023-02-23T00:07:20.162Z,3.04
2023-02-23T00:09:48.078Z,3.11
2023-02-23T00:12:17.450Z,3.09
2023-02-23T00:14:45.463Z,2.94
2023-02-23T00:17:14.972Z,2.88
2023-02-23T00:19:44.110Z,2.85
2023-02-23T00:22:12.948Z,3.00
2023-02-23T00:24:43.063Z,2.77
2023-02-23T00:27:17.944Z,2.76
2023-02-23T00:29:49.589Z,2.87
2023-02-23T00:32:21.185Z,2.85
2023-02-23T00:34:52.597Z,2.79
2023-02-23T00:37:23.288Z,2.84
2023-02-23T00:39:52.322Z,2.92
2023-02-23T00:42:20.627Z,2.98
2023-02-23T00:44:49.545Z,2.85
2023-02-23T00:47:17.582Z,2.97
2023-02-23T00:49:45.663Z,2.93
2023-02-23T00:52:14.874Z,2.91
2023-02-23T00:54:42.875Z,2.84
2023-02-23T00:57:10.892Z,2.71
2023-02-23T00:59:38.743Z,2.32
2023-02-23T01:02:07.415Z,2.41
2023-02-23T01:04:35.360Z,2.42
2023-02-23T01:07:06.630Z,2.47
2023-02-23T01:09:34.624Z,2.12
2023-02-23T01:12:07.817Z,2.29
2023-02-23T01:14:38.258Z,2.24
2023-02-23T01:17:07.723Z,2.32
2023-02-23T01:19:37.680Z,2.22
2023-02-23T01:22:05.771Z,2.30
2023-02-23T01:24:33.743Z,2.40
2023-02-23T01:27:05.462Z,2.37
2023-02-23T01:29:34.859Z,2.15
2023-02-23T01:32:04.703Z,2.02
2023-02-23T01:34:33.071Z,2.06
2023-02-23T01:37:01.071Z,1.97
2023-02-23T01:39:29.862Z,1.77
2023-02-23T01:41:57.718Z,1.74
2023-02-23T01:44:25.752Z,1.70
2023-02-23T01:46:53.666Z,1.75
2023-02-23T01:49:28.746Z,1.88
2023-02-23T01:52:11.218Z,1.88
2023-02-23T01:54:44.551Z,1.96
2023-02-23T01:57:15.077Z,2.12
2023-02-23T01:59:44.055Z,2.14
2023-02-23T02:02:13.609Z,2.19
2023-02-23T02:04:46.060Z,2.25
2023-02-23T02:07:23.019Z,2.31
2023-02-23T02:10:12.903Z,2.16
2023-02-23T02:12:44.707Z,2.11
2023-02-23T02:15:20.071Z,2.20
2023-02-23T02:18:18.859Z,2.29
2023-02-23T02:21:14.338Z,2.31
2023-02-23T02:24:00.999Z,2.25
2023-02-23T02:26:53.957Z,1.95
2023-02-23T02:29:51.503Z,2.34
2023-02-23T02:32:39.632Z,2.12
2023-02-23T02:35:07.753Z,1.73
2023-02-23T02:37:50.431Z,1.76
2023-02-23T02:40:24.301Z,1.76
2023-02-23T02:43:11.407Z,1.64
2023-02-23T02:45:39.246Z,1.56
2023-02-23T02:48:20.980Z,1.63
2023-02-23T02:50:51.609Z,1.67
2023-02-23T02:53:45.378Z,1.58
2023-02-23T02:57:59.378Z,1.62
2023-02-23T03:00:56.761Z,1.53
2023-02-23T03:03:54.111Z,1.53
2023-02-23T03:07:01.862Z,1.57
2023-02-23T03:10:14.571Z,1.62
2023-02-23T03:13:16.902Z,1.69
2023-02-23T03:16:39.710Z,1.76
2023-02-23T03:19:41.653Z,1.68
2023-02-23T03:22:51.380Z,1.69
2023-02-23T03:25:43.114Z,1.52
2023-02-23T03:28:36.242Z,1.28
2023-02-23T03:31:52.248Z,1.11
2023-02-23T03:34:51.830Z,1.27
2023-02-23T03:37:43.265Z,1.38
2023-02-23T03:40:37.674Z,1.37
2023-02-23T03:43:32.511Z,1.46
2023-02-23T03:46:21.951Z,1.37
2023-02-23T03:49:09.819Z,1.67
2023-02-23T03:51:59.545Z,1.63
2023-02-23T03:54:53.529Z,1.62
2023-02-23T03:57:44.819Z,1.67
2023-02-23T04:00:38.797Z,1.62
2023-02-23T04:03:26.907Z,1.56
2023-02-23T04:06:16.064Z,1.51
2023-02-23T04:09:03.090Z,1.27
2023-02-23T04:12:06.049Z,1.28
2023-02-23T04:14:40.307Z,1.15
2023-02-23T04:17:09.743Z,1.23
2023-02-23T04:19:37.786Z,1.33
2023-02-23T04:22:05.845Z,1.25
2023-02-23T04:24:33.910Z,1.01
2023-02-23T04:27:03.122Z,0.89
2023-02-23T04:29:31.072Z,0.73
2023-02-23T04:31:59.253Z,0.89
2023-02-23T04:34:27.108Z,0.76
2023-02-23T04:36:55.093Z,0.75
2023-02-23T04:39:22.972Z,0.74
2023-02-23T04:41:51.137Z,0.82
2023-02-23T04:44:19.045Z,0.59
2023-02-23T04:46:46.987Z,0.70
2023-02-23T04:49:14.902Z,0.76
2023-02-23T04:51:42.864Z,0.66
2023-02-23T04:54:10.923Z,0.58
2023-02-23T04:56:39.671Z,0.67
2023-02-23T04:59:07.676Z,0.82
2023-02-23T05:01:37.393Z,0.75
2023-02-23T05:04:05.507Z,0.95
2023-02-23T05:06:33.747Z,1.00
2023-02-23T05:09:03.404Z,1.01
2023-02-23T05:11:31.311Z,1.04
2023-02-23T05:13:59.388Z,1.06
2023-02-23T05:16:27.914Z,1.13
2023-02-23T05:18:56.012Z,1.16
2023-02-23T05:21:23.902Z,1.24
2023-02-23T05:23:51.850Z,1.28
2023-02-23T05:26:20.369Z,1.24
2023-02-23T05:28:49.089Z,1.32
2023-02-23T05:31:17.932Z,1.33
2023-02-23T05:33:46.057Z,1.22
2023-02-23T05:36:17.791Z,1.17
2023-02-23T05:38:46.706Z,0.88
2023-02-23T05:41:20.983Z,0.86
2023-02-23T05:43:52.591Z,0.79
2023-02-23T05:46:25.898Z,0.87
2023-02-23T05:48:59.431Z,0.75
2023-02-23T05:51:29.139Z,0.96
2023-02-23T05:53:57.267Z,1.08
2023-02-23T05:56:26.600Z,1.20
2023-02-23T05:58:55.789Z,1.34
2023-02-23T06:01:23.859Z,1.30
2023-02-23T06:03:52.425Z,1.42
2023-02-23T06:06:20.714Z,1.42
2023-02-23T06:08:50.069Z,1.46
2023-02-23T06:11:18.368Z,1.38
2023-02-23T06:13:46.517Z,1.54
2023-02-23T06:16:14.708Z,1.63
2023-02-23T06:18:42.690Z,1.61
2023-02-23T06:21:10.874Z,1.86
2023-02-23T06:23:39.222Z,1.97
2023-02-23T06:26:07.970Z,1.75
2023-02-23T06:28:36.758Z,1.86
2023-02-23T06:31:04.751Z,2.02
2023-02-23T06:33:32.757Z,2.27
2023-02-23T06:36:01.050Z,2.32
2023-02-23T06:38:29.653Z,2.39
2023-02-23T06:40:57.680Z,2.37
2023-02-23T06:43:25.744Z,2.33
2023-02-23T06:45:53.865Z,2.34
2023-02-23T06:48:21.664Z,2.47
2023-02-23T06:50:49.565Z,2.58
2023-02-23T06:53:18.576Z,2.81
2023-02-23T06:55:46.898Z,2.89
2023-02-23T06:58:14.788Z,3.10
2023-02-23T07:00:43.900Z,3.19
2023-02-23T07:03:12.014Z,3.01
2023-02-23T07:05:40.915Z,3.11
2023-02-23T07:08:09.043Z,3.35
2023-02-23T07:10:37.224Z,3.49
2023-02-23T07:13:05.149Z,3.72
2023-02-23T07:15:33.161Z,4.02
2023-02-23T07:18:01.233Z,4.13
2023-02-23T07:20:29.151Z,4.13
2023-02-23T07:22:57.819Z,4.14
2023-02-23T07:25:25.717Z,4.43
2023-02-23T07:27:54.517Z,4.65
2023-02-23T07:30:25.615Z,4.81
2023-02-23T07:32:54.267Z,4.81
2023-02-23T07:35:22.381Z,5.09
2023-02-23T07:37:50.365Z,5.29
2023-02-23T07:40:19.676Z,5.46
2023-02-23T07:42:47.469Z,5.50
2023-02-23T07:45:15.345Z,5.72
2023-02-23T07:47:44.791Z,5.90
2023-02-23T07:50:14.249Z,6.20
2023-02-23T07:52:43.933Z,6.52
2023-02-23T07:55:12.590Z,9.32
2023-02-23T07:57:40.492Z,12.08
2023-02-23T08:00:09.212Z,14.30
2023-02-23T08:02:44.072Z,16.54
2023-02-23T08:05:13.154Z,17.61
2023-02-23T08:07:41.064Z,18.67
2023-02-23T08:10:09.885Z,18.33
2023-02-23T08:12:38.218Z,19.00
2023-02-23T08:15:09.700Z,18.10
2023-02-23T08:17:39.066Z,18.26
2023-02-23T08:20:08.908Z,18.40
2023-02-23T08:22:48.431Z,18.12
2023-02-23T08:25:18.659Z,17.62
2023-02-23T08:27:47.325Z,17.76
2023-02-23T08:30:15.782Z,17.32
2023-02-23T08:32:43.845Z,17.12
2023-02-23T08:35:12.256Z,16.84
2023-02-23T08:37:42.084Z,17.12
2023-02-23T08:40:11.736Z,17.39
2023-02-23T08:42:39.807Z,17.39
2023-02-23T08:45:08.741Z,17.95
2023-02-23T08:47:37.216Z,18.43
2023-02-23T08:50:05.573Z,18.78
2023-02-23T08:52:34.319Z,19.94
2023-02-23T08:55:02.502Z,21.00
2023-02-23T08:57:33.772Z,21.36
2023-02-23T09:00:02.436Z,21.86
2023-02-23T09:02:30.664Z,22.60
2023-02-23T09:04:59.584Z,22.79
2023-02-23T09:07:27.621Z,23.89
2023-02-23T09:09:56.876Z,23.16
2023-02-23T09:12:25.430Z,22.81
2023-02-23T09:14:54.037Z,23.75
2023-02-23T09:17:23.298Z,24.17
2023-02-23T09:19:51.963Z,24.13
2023-02-23T09:22:20.077Z,24.80
2023-02-23T09:24:48.229Z,24.75
2023-02-23T09:27:16.045Z,23.92
2023-02-23T09:29:44.723Z,23.56
2023-02-23T09:32:12.915Z,23.30
2023-02-23T09:34:40.870Z,22.88
2023-02-23T09:37:08.905Z,23.00
2023-02-23T09:39:38.829Z,22.62
2023-02-23T09:42:16.166Z,21.34
2023-02-23T09:44:50.168Z,20.99
2023-02-23T09:47:50.964Z,20.86
2023-02-23T09:50:25.818Z,21.33
2023-02-23T09:53:14.640Z,22.71
2023-02-23T09:55:44.065Z,24.94
2023-02-23T09:58:23.828Z,24.56
2023-02-23T10:01:07.084Z,24.80
2023-02-23T10:03:40.618Z,24.50
2023-02-23T10:06:14.771Z,24.59
2023-02-23T10:09:02.704Z,24.07
2023-02-23T10:11:58.297Z,22.77
2023-02-23T10:14:51.193Z,23.45
2023-02-23T10:17:49.637Z,24.10
2023-02-23T10:20:36.059Z,24.88
2023-02-23T10:23:13.460Z,25.47
2023-02-23T10:26:07.880Z,25.76
2023-02-23T10:28:37.618Z,25.26
2023-02-23T10:31:24.366Z,26.08
2023-02-23T10:33:55.628Z,25.70
2023-02-23T10:36:46.601Z,24.98
2023-02-23T10:39:14.768Z,24.96
2023-02-23T10:41:43.652Z,24.80
2023-02-23T10:44:20.242Z,25.19
2023-02-23T10:46:55.737Z,24.94
2023-02-23T10:49:30.880Z,25.61
2023-02-23T10:52:03.118Z,25.35
2023-02-23T10:54:39.616Z,25.89
2023-02-23T10:57:09.052Z,26.00
2023-02-23T10:59:37.173Z,26.10
2023-02-23T11:02:38.723Z,26.75
2023-02-23T11:05:07.439Z,25.91
2023-02-23T11:07:35.421Z,26.17
2023-02-23T11:10:27.643Z,25.43
2023-02-23T11:12:55.640Z,23.21
2023-02-23T11:15:46.327Z,22.58
2023-02-23T11:18:26.339Z,22.32
2023-02-23T11:20:55.815Z,22.82
2023-02-23T11:23:29.806Z,22.52
2023-02-23T11:26:00.528Z,22.35
2023-02-23T11:28:35.242Z,23.19
2023-02-23T11:31:14.065Z,23.81
2023-02-23T11:33:42.664Z,23.61
2023-02-23T11:36:27.051Z,23.42
2023-02-23T11:39:02.807Z,22.92
2023-02-23T11:41:33.061Z,23.28
2023-02-23T11:44:05.584Z,23.10
2023-02-23T11:46:38.152Z,23.35
2023-02-23T11:49:07.469Z,22.54
2023-02-23T11:51:49.855Z,21.79
2023-02-23T11:54:36.355Z,21.69
2023-02-23T11:57:04.787Z,20.89
2023-02-23T11:59:45.496Z,20.05
2023-02-23T12:02:23.294Z,19.70
2023-02-23T12:05:21.073Z,19.41
2023-02-23T12:08:01.669Z,19.41
2023-02-23T12:10:38.135Z,19.51
2023-02-23T12:13:07.652Z,19.59
2023-02-23T12:15:44.062Z,19.34
2023-02-23T12:18:33.754Z,19.35
2023-02-23T12:21:17.777Z,19.46
2023-02-23T12:23:50.418Z,19.25
2023-02-23T12:26:22.944Z,19.27
2023-02-23T12:28:59.995Z,18.87
2023-02-23T12:31:48.538Z,18.70
2023-02-23T12:34:39.536Z,18.64
2023-02-23T12:37:16.465Z,18.69
2023-02-23T12:39:51.842Z,18.52
2023-02-23T12:42:43.149Z,18.30
2023-02-23T12:45:23.749Z,17.66
2023-02-23T12:48:27.311Z,17.27
2023-02-23T12:51:02.452Z,17.31
2023-02-23T12:53:53.144Z,17.12
2023-02-23T12:56:50.025Z,17.03
2023-02-23T12:59:47.679Z,16.91
2023-02-23T13:02:53.027Z,17.08
2023-02-23T13:05:24.691Z,17.10
2023-02-23T13:08:20.940Z,17.26
2023-02-23T13:11:11.945Z,17.03
2023-02-23T13:14:09.487Z,17.29
2023-02-23T13:16:46.217Z,17.23
2023-02-23T13:19:22.664Z,17.24
2023-02-23T13:22:09.587Z,17.17
2023-02-23T13:24:43.836Z,17.07
2023-02-23T13:27:34.469Z,16.68
2023-02-23T13:30:04.196Z,16.33
2023-02-23T13:32:34.643Z,15.95
2023-02-23T13:35:09.684Z,15.63
2023-02-23T13:37:51.108Z,15.50
2023-02-23T13:40:41.228Z,15.58
2023-02-23T13:43:37.228Z,15.46
2023-02-23T13:46:26.522Z,15.50
2023-02-23T13:49:04.603Z,15.08
2023-02-23T13:51:52.132Z,15.06
2023-02-23T13:54:31.088Z,14.98
2023-02-23T13:57:02.786Z,15.20
2023-02-23T13:59:38.038Z,14.98
2023-02-23T14:02:31.141Z,14.96
2023-02-23T14:05:16.225Z,14.78
2023-02-23T14:07:47.957Z,14.91
2023-02-23T14:10:28.876Z,14.81
2023-02-23T14:13:09.105Z,14.55
2023-02-23T14:15:40.699Z,14.49
2023-02-23T14:18:17.898Z,14.51
2023-02-23T14:21:11.158Z,14.37
2023-02-23T14:23:48.407Z,14.21
2023-02-23T14:26:19.178Z,13.88
2023-02-23T14:29:09.008Z,13.72
2023-02-23T14:31:38.450Z,13.71
2023-02-23T14:34:09.481Z,13.39
2023-02-23T14:36:43.532Z,13.40
2023-02-23T14:39:24.358Z,13.43
2023-02-23T14:42:06.724Z,13.31
2023-02-23T14:44:34.915Z,13.21
2023-02-23T14:47:18.902Z,13.19
2023-02-23T14:49:57.364Z,13.17
2023-02-23T14:52:41.729Z,13.22
2023-02-23T14:55:12.544Z,13.08
2023-02-23T14:57:43.839Z,13.00
2023-02-23T15:00:23.401Z,12.74
2023-02-23T15:02:58.683Z,12.79
2023-02-23T15:05:31.099Z,12.72
2023-02-23T15:08:01.568Z,12.80
2023-02-23T15:10:35.825Z,12.68
2023-02-23T15:13:29.015Z,12.71
2023-02-23T15:15:58.613Z,12.62
2023-02-23T15:18:39.043Z,12.66
2023-02-23T15:21:14.170Z,12.57
2023-02-23T15:23:45.819Z,12.46
2023-02-23T15:26:41.957Z,12.43
2023-02-23T15:29:18.829Z,12.26
2023-02-23T15:31:52.240Z,12.33
2023-02-23T15:34:27.130Z,12.34
2023-02-23T15:37:01.979Z,12.38
2023-02-23T15:39:40.135Z,12.19
2023-02-23T15:42:15.675Z,12.32
2023-02-23T15:44:45.566Z,12.34
2023-02-23T15:47:22.989Z,12.31
2023-02-23T15:49:51.458Z,12.22
2023-02-23T15:52:24.347Z,12.15
2023-02-23T15:55:00.708Z,12.16
2023-02-23T15:57:44.390Z,12.19
2023-02-23T16:00:20.258Z,12.23
2023-02-23T16:02:49.236Z,12.02
2023-02-23T16:05:25.872Z,11.97
2023-02-23T16:08:07.923Z,11.98
2023-02-23T16:10:47.458Z,11.89
2023-02-23T16:13:21.598Z,11.76
2023-02-23T16:15:51.040Z,11.77
2023-02-23T16:18:23.463Z,11.70
2023-02-23T16:20:58.019Z,11.53
2023-02-23T16:23:42.014Z,11.26
2023-02-23T16:26:18.562Z,11.03
2023-02-23T16:28:47.682Z,10.90
2023-02-23T16:31:22.825Z,10.72
2023-02-23T16:34:00.409Z,10.65
2023-02-23T16:36:38.930Z,10.63
2023-02-23T16:39:12.900Z,10.66
2023-02-23T16:41:41.017Z,10.55
2023-02-23T16:44:18.765Z,10.39
2023-02-23T16:46:56.294Z,10.41
2023-02-23T16:49:24.620Z,10.38
2023-02-23T16:51:52.533Z,10.30
2023-02-23T16:54:20.934Z,10.15
2023-02-23T16:56:50.905Z,10.15
2023-02-23T16:59:19.479Z,10.16
2023-02-23T17:01:47.837Z,10.17
2023-02-23T17:04:22.633Z,10.11
2023-02-23T17:06:58.376Z,10.00
2023-02-23T17:09:27.838Z,10.07
2023-02-23T17:11:57.564Z,9.97
2023-02-23T17:14:28.527Z,9.91
2023-02-23T17:16:57.049Z,9.80
2023-02-23T17:19:26.089Z,9.95
2023-02-23T17:21:55.101Z,10.01
2023-02-23T17:24:26.389Z,9.85
2023-02-23T17:26:55.902Z,9.75
2023-02-23T17:29:24.890Z,9.63
2023-02-23T17:31:53.447Z,9.76
2023-02-23T17:34:21.984Z,9.71
2023-02-23T17:36:50.430Z,9.72
2023-02-23T17:39:19.119Z,9.70
2023-02-23T17:41:47.481Z,9.74
2023-02-23T17:44:16.433Z,9.65
2023-02-23T17:46:45.199Z,9.63
2023-02-23T17:49:13.500Z,9.70
2023-02-23T17:51:42.157Z,9.69
2023-02-23T17:54:10.734Z,9.64
2023-02-23T17:56:39.726Z,9.49
2023-02-23T17:59:08.396Z,9.55
2023-02-23T18:01:37.148Z,9.49
2023-02-23T18:04:05.563Z,9.38
2023-02-23T18:06:33.918Z,9.42
2023-02-23T18:09:04.876Z,9.35
2023-02-23T18:11:34.900Z,9.27
2023-02-23T18:14:04.186Z,9.07
2023-02-23T18:16:34.184Z,9.01
2023-02-23T18:19:02.831Z,9.05
2023-02-23T18:21:34.558Z,9.05
2023-02-23T18:24:03.020Z,9.03
2023-02-23T18:26:31.863Z,9.02
2023-02-23T18:29:00.120Z,8.90
2023-02-23T18:31:28.934Z,8.91
2023-02-23T18:34:01.727Z,8.98
2023-02-23T18:36:32.370Z,8.67
2023-02-23T18:39:01.582Z,8.56
2023-02-23T18:41:33.422Z,8.68
2023-02-23T18:44:04.338Z,8.68
2023-02-23T18:46:33.712Z,8.45
2023-02-23T18:49:02.489Z,8.24
2023-02-23T18:51:31.093Z,8.07
2023-02-23T18:54:00.471Z,8.10
2023-02-23T18:56:29.205Z,8.18
2023-02-23T18:59:01.921Z,8.24
2023-02-23T19:01:33.634Z,8.33
2023-02-23T19:04:03.706Z,8.32
2023-02-23T19:06:33.596Z,8.23
2023-02-23T19:09:04.607Z,8.27
2023-02-23T19:11:34.974Z,8.33
2023-02-23T19:14:06.788Z,8.15
2023-02-23T19:16:35.680Z,8.25
2023-02-23T19:19:06.127Z,8.25
2023-02-23T19:21:36.242Z,8.11
2023-02-23T19:24:06.006Z,8.10
2023-02-23T19:26:36.395Z,8.16
2023-02-23T19:29:05.265Z,8.19
2023-02-23T19:31:34.692Z,8.18
2023-02-23T19:34:05.367Z,8.20
2023-02-23T19:36:34.036Z,8.12
2023-02-23T19:39:11.220Z,8.12
2023-02-23T19:41:40.208Z,8.05
2023-02-23T19:44:08.152Z,8.05
2023-02-23T19:46:37.627Z,8.07
2023-02-23T19:49:06.515Z,8.14
2023-02-23T19:51:35.360Z,8.05
2023-02-23T19:54:03.788Z,8.11
2023-02-23T19:56:31.731Z,8.14
2023-02-23T19:59:02.575Z,7.96
2023-02-23T20:01:31.394Z,7.96
2023-02-23T20:04:06.603Z,8.05
2023-02-23T20:06:41.301Z,8.01
2023-02-23T20:09:09.911Z,8.10
2023-02-23T20:11:37.961Z,8.10
2023-02-23T20:14:08.213Z,8.14
2023-02-23T20:16:36.846Z,7.95
2023-02-23T20:19:07.886Z,8.02
2023-02-23T20:21:37.357Z,8.09
2023-02-23T20:24:06.326Z,7.93
2023-02-23T20:26:37.396Z,7.93
2023-02-23T20:29:11.377Z,8.00
2023-02-23T20:31:45.155Z,8.05
2023-02-23T20:34:13.646Z,7.74
2023-02-23T20:36:42.136Z,7.89
2023-02-23T20:39:10.983Z,7.73
2023-02-23T20:41:44.386Z,7.74
2023-02-23T20:44:13.655Z,7.55
2023-02-23T20:46:44.080Z,7.39
2023-02-23T20:49:18.611Z,7.34
2023-02-23T20:51:48.796Z,7.52
2023-02-23T20:54:17.575Z,7.68
2023-02-23T20:57:08.405Z,7.65
2023-02-23T20:59:51.349Z,7.65
2023-02-23T21:02:19.395Z,7.48
2023-02-23T21:04:47.378Z,7.56
2023-02-23T21:07:15.524Z,7.53
2023-02-23T21:09:43.827Z,7.39
2023-02-23T21:12:11.937Z,7.37
2023-02-23T21:14:40.104Z,7.47
2023-02-23T21:17:10.077Z,7.63
2023-02-23T21:19:39.148Z,7.45
2023-02-23T21:22:07.107Z,7.45
2023-02-23T21:24:41.254Z,7.54
2023-02-23T21:27:13.184Z,7.49
2023-02-23T21:29:42.167Z,7.42
2023-02-23T21:32:14.297Z,7.52
2023-02-23T21:34:43.942Z,7.41
2023-02-23T21:37:12.086Z,7.23
2023-02-23T21:39:41.170Z,7.09
2023-02-23T21:42:09.188Z,7.03
2023-02-23T21:44:37.524Z,7.21
2023-02-23T21:47:07.411Z,7.07
2023-02-23T21:49:36.370Z,7.07
2023-02-23T21:52:04.572Z,7.11
2023-02-23T21:54:36.768Z,7.02
2023-02-23T21:57:04.986Z,7.20
2023-02-23T21:59:35.668Z,7.29
2023-02-23T22:02:03.988Z,7.27
2023-02-23T22:04:31.864Z,7.27
2023-02-23T22:07:00.140Z,7.15
2023-02-23T22:09:28.226Z,7.20
2023-02-23T22:11:56.130Z,7.09
2023-02-23T22:14:23.998Z,6.90
2023-02-23T22:16:52.047Z,7.07
2023-02-23T22:19:20.058Z,6.95
2023-02-23T22:21:48.683Z,6.90
2023-02-23T22:24:17.475Z,6.85
2023-02-23T22:26:54.430Z,6.82
2023-02-23T22:29:24.648Z,6.99
2023-02-23T22:31:52.982Z,6.80
2023-02-23T22:34:21.124Z,6.75
2023-02-23T22:36:50.288Z,6.73
2023-02-23T22:39:19.059Z,6.64
2023-02-23T22:41:48.246Z,6.66
2023-02-23T22:44:18.898Z,6.54
2023-02-23T22:46:48.878Z,6.67
2023-02-23T22:49:20.147Z,6.60
2023-02-23T22:51:48.369Z,6.74
2023-02-23T22:54:17.634Z,6.71
2023-02-23T22:56:47.113Z,6.60
2023-02-23T22:59:17.824Z,6.58
2023-02-23T23:01:47.837Z,6.30
2023-02-23T23:04:15.730Z,6.43
2023-02-23T23:06:44.076Z,6.47
2023-02-23T23:09:13.096Z,6.38
2023-02-23T23:11:44.638Z,6.36
2023-02-23T23:14:12.773Z,6.36
2023-02-23T23:16:50.154Z,6.43
2023-02-23T23:19:25.962Z,6.57
2023-02-23T23:21:55.832Z,6.62
2023-02-23T23:24:25.239Z,6.61
2023-02-23T23:26:55.694Z,6.74
2023-02-23T23:29:25.974Z,6.88
2023-02-23T23:31:57.291Z,6.89
2023-02-23T23:34:25.554Z,6.78
2023-02-23T23:36:55.619Z,6.78
2023-02-23T23:39:26.459Z,6.84
2023-02-23T23:41:56.175Z,6.80
2023-02-23T23:44:30.121Z,6.95
2023-02-23T23:46:58.630Z,6.99
2023-02-23T23:49:26.796Z,7.07
2023-02-23T23:51:59.043Z,7.15
2023-02-23T23:54:32.843Z,7.22
2023-02-23T23:57:04.067Z,7.24
2023-02-23T23:59:34.061Z,7.13
